Home > Products > Valid Products > MTR

000
SAUS46 KSEW 250601
MTRSMP
METAR KSMP 250556Z AUTO VRB04KT OVC002 07/06 A3003 RMK AO2 SLP172
T00670056 10089 20067 51009 $





000
SAUS46 KSEW 250501
MTRSMP
METAR KSMP 250456Z AUTO VRB04KT OVC002 07/06 A3003 RMK AO2 SLP172
T00670056 $





000
SAUS46 KSEW 250311
MTRSMP
SPECI KSMP 250306Z AUTO VRB04KT BKN002 OVC030 07/06 A3000 RMK AO2
T00720056 $





000
SAUS46 KSEW 250156
MTRSMP
SPECI KSMP 250151Z AUTO 00000KT SCT010 OVC028 08/05 A3000 RMK AO2 $





000
SAUS46 KSEW 250101
MTRSMP
METAR KSMP 250056Z AUTO VRB06KT FEW011 OVC029 08/05 A3000 RMK AO2
SLP162 T00830050 $





000
SAUS46 KSEW 242351
MTRSMP
SPECI KSMP 242346Z AUTO VRB03KT BKN014 OVC021 09/05 A3000 RMK AO2
T00890050 $





000
SAUS46 KSEW 242301
MTRSMP
METAR KSMP 242256Z AUTO VRB03KT BKN014 BKN022 OVC027 08/05 A2999 RMK
AO2 SLP160 T00830050 $





000
SAUS46 KSEW 241900
MTRSMP
METAR KSMP 241856Z AUTO VRB03KT FEW010 BKN017 OVC022 09/06 A2997 RMK
AO2 SLP150 T00890056 $





000
SAUS46 KSEW 241827
MTRSMP
SPECI KSMP 241822Z AUTO VRB06KT 10SM SCT008 SCT012 OVC025 09/05
A2996 RMK AO2 T00890050 $





000
SAUS46 KSEW 241801
MTRSMP
METAR KSMP 241756Z AUTO VRB04KT 10SM BKN007 BKN012 OVC022 07/05
A2996 RMK AO2 CIG 005V010 SLP149 T00720050 10078 20044 52007 $





000
SAUS46 KSEW 241730
MTRSMP
SPECI KSMP 241725Z AUTO VRB05KT 10SM BKN005 BKN011 OVC019 07/05
A2995 RMK AO2 CIG 004V009 T00670050 $





000
SAUS46 KSEW 241700
MTRSMP
METAR KSMP 241656Z AUTO VRB04KT 10SM BKN002 OVC008 06/04 A2995 RMK
AO2 CIG 002V006 SLP148 T00610044 $





000
SAUS46 KSEW 241636
MTRSMP
SPECI KSMP 241631Z AUTO VRB05KT 2SM BR OVC002 06/04 A2995 RMK AO2
T00610044 $





000
SAUS46 KSEW 241500
MTRSMP
METAR KSMP 241456Z AUTO 24005KT 1/4SM FG VV002 06/04 A2993 RMK AO2
SLP143 T00560044 53005 $





000
SAUS46 KSEW 241301
MTRSMP
METAR KSMP 241256Z AUTO VRB05KT M1/4SM FG VV002 04/03 A2992 RMK AO2
SLP138 T00440033 $





000
SAUS46 KSEW 241201
MTRSMP
METAR KSMP 241156Z AUTO 24005KT 1/4SM FG VV002 04/03 A2992 RMK AO2
SLP137 70001 T00440033 10044 20044 58001 $





000
SAUS46 KSEW 241101
MTRSMP
METAR KSMP 241056Z AUTO 22004KT 1/4SM FG VV002 04/03 A2992 RMK AO2
SLP138 T00440033 $





000
SAUS46 KSEW 240901
MTRSMP
METAR KSMP 240856Z AUTO 25004KT 1/4SM FG BKN002 OVC032 04/03 A2992
RMK AO2 SLP140 T00440033 58002 $





000
SAUS46 KSEW 240831
MTRSMP
SPECI KSMP 240827Z AUTO VRB04KT 1SM BR OVC032 04/03 A2992 RMK AO2
T00440033 $





000
SAUS46 KSEW 240812
MTRSMP
SPECI KSMP 240807Z AUTO 24004KT 1 3/4SM BR OVC032 04/03 A2992 RMK
AO2 T00440033 $





000
SAUS46 KSEW 240756
MTRSMP
METAR KSMP 240751Z AUTO 24004KT 3/4SM BR OVC032 04/03 A2993 RMK AO2
SLP142 T00440033 400720033 $





000
SAUS46 KSEW 240642
MTRSMP
SPECI KSMP 240637Z AUTO VRB04KT 1/2SM FG SCT002 OVC034 04/03 A2993
RMK AO2 T00440033 $





000
SAUS46 KSEW 240627
MTRSMP
SPECI KSMP 240623Z AUTO 24005KT 1/4SM FG BKN002 OVC034 04/03 A2993
RMK AO2 T00440033 $





000
SAUS46 KSEW 240601
MTRSMP
METAR KSMP 240556Z AUTO 25004KT 1/4SM FG BKN001 OVC035 04/03 A2993
RMK AO2 SLP142 T00440033 10061 20044 50003 $





000
SAUS46 KSEW 240553
MTRSMP
SPECI KSMP 240548Z AUTO VRB04KT 1/4SM FG VV001 04/03 A2993 RMK AO2
T00440033 $





000
SAUS46 KSEW 240501
MTRSMP
METAR KSMP 240456Z AUTO VRB04KT 1/4SM FG VV002 04/03 A2993 RMK AO2
SLP145 T00440033 $





000
SAUS46 KSEW 240409
MTRSMP
SPECI KSMP 240404Z AUTO VRB04KT 1/4SM FG BKN002 OVC018 05/04 A2992
RMK AO2 T00500039 $





000
SAUS46 KSEW 240328
MTRSMP
SPECI KSMP 240323Z AUTO VRB04KT 10SM SCT003 BKN012 OVC017 06/04
A2992 RMK AO2 T00560039 $





000
SAUS46 KSEW 240231
MTRSMP
SPECI KSMP 240227Z AUTO VRB05KT 10SM BKN014 OVC020 06/03 A2992 RMK
AO2 T00560033 $





000
SAUS46 KSEW 240100
MTRSMP
METAR KSMP 240056Z AUTO VRB04KT 10SM SCT006 BKN012 OVC024 06/04
A2992 RMK AO2 SLP139 T00610039 $





000
SAUS46 KSEW 240040
MTRSMP
SPECI KSMP 240036Z AUTO VRB03KT 9SM OVC008 06/04 A2992 RMK AO2 CIG
004V011 T00610039 $





000
SAUS46 KSEW 240001
MTRSMP
METAR KSMP 232356Z AUTO VRB03KT 10SM OVC010 06/03 A2993 RMK AO2 CIG
007V013 SLP142 T00610033 10072 20050 50003 $





000
SAUS46 KSEW 232301
MTRSMP
METAR KSMP 232256Z AUTO 31005KT 10SM BKN010 OVC013 06/03 A2993 RMK
AO2 CIG 009V013 SLP143 T00610033 $





000
SAUS46 KSEW 231901
MTRSMP
METAR KSMP 231856Z AUTO VRB05KT 10SM FEW010 BKN015 OVC023 06/03
A2991 RMK AO2 SLP137 T00560028 $





000
SAUS46 KSEW 231826
MTRSMP
SPECI KSMP 231821Z AUTO VRB06KT 10SM FEW009 BKN016 OVC021 06/03
A2991 RMK AO2 T00560028 $





000
SAUS46 KSEW 231801
MTRSMP
METAR KSMP 231756Z AUTO VRB04KT 10SM SCT010 BKN017 OVC024 06/03
A2992 RMK AO2 SLP138 60001 T00560033 10056 20033 53005 $





000
SAUS46 KSEW 231706
MTRSMP
SPECI KSMP 231701Z AUTO VRB05KT 7SM SCT008 OVC014 04/03 A2991 RMK
AO2 T00390028 $





000
SAUS46 KSEW 231702
MTRSMP
SPECI KSMP 231658Z AUTO VRB06KT 2SM BR SCT008 OVC016 04/03 A2990 RMK
AO2 T00390028 $





000
SAUS46 KSEW 231700
MTRSMP
METAR KSMP 231656Z AUTO VRB05KT 1 1/2SM BR FEW002 SCT008 OVC014
04/03 A2990 RMK AO2 SLP136 T00390028 $





000
SAUS46 KSEW 231648
MTRSMP
SPECI KSMP 231644Z AUTO VRB03KT 1/2SM FG BKN011 BKN017 OVC021 04/03
A2990 RMK AO2 T00440033 $





000
SAUS46 KSEW 231636
MTRSMP
SPECI KSMP 231632Z AUTO 28007KT 2 1/2SM BR SCT008 BKN011 OVC019
04/03 A2990 RMK AO2 T00390028 $





000
SAUS46 KSEW 231616
MTRSMP
SPECI KSMP 231611Z AUTO VRB04KT 3SM BR SCT004 BKN010 OVC015 04/02
A2990 RMK AO2 T00390022 $





000
SAUS46 KSEW 231545
MTRSMP
SPECI KSMP 231541Z AUTO VRB06KT 1/4SM FG BKN003 BKN010 OVC016 04/03
A2990 RMK AO2 T00390028 $





000
SAUS46 KSEW 231533
MTRSMP
SPECI KSMP 231528Z AUTO VRB06KT 1/2SM FG BKN003 BKN009 OVC016 04/03
A2990 RMK AO2 T00390028 $





000
SAUS46 KSEW 231429
MTRSMP
SPECI KSMP 231424Z AUTO VRB04KT 1/4SM FG BKN004 BKN010 OVC028 03/02
A2990 RMK AO2 T00330022 $





000
SAUS46 KSEW 231421
MTRSMP
SPECI KSMP 231417Z AUTO VRB06KT 1/4SM FG FEW002 BKN006 OVC029 03/02
A2990 RMK AO2 T00330022 $





000
SAUS46 KSEW 231408
MTRSMP
SPECI KSMP 231404Z AUTO 3/4SM BR SCT004 BKN025 OVC029 03/02 A2989
RMK AO2 T00330022 $





000
SAUS46 KSEW 231357
MTRSMP
SPECI KSMP 231352Z AUTO VRB05KT 1/2SM FG SCT004 SCT012 OVC023 03/02
A2989 RMK AO2 P0001 $





000
SAUS46 KSEW 231347
MTRSMP
SPECI KSMP 231342Z AUTO VRB06KT 1/4SM FG SCT003 BKN012 OVC022 03/02
A2989 RMK AO2 P0001 T00330022 $





000
SAUS46 KSEW 231336
MTRSMP
SPECI KSMP 231331Z AUTO VRB06KT 1/2SM FG SCT003 BKN008 OVC024 03/02
A2989 RMK AO2 P0001 T00330022 $





000
SAUS46 KSEW 231330
MTRSMP
SPECI KSMP 231326Z AUTO VRB04KT 1/4SM FG BKN003 BKN008 OVC024 03/02
A2989 RMK AO2 P0001 T00330022 $





000
SAUS46 KSEW 231306
MTRSMP
SPECI KSMP 231301Z AUTO 27007KT 220V300 3/4SM BR BKN003 OVC011 03/02
A2989 RMK AO2 T00330022 $





000
SAUS46 KSEW 231300
MTRSMP
METAR KSMP 231256Z AUTO VRB06KT 1 1/2SM BR BKN003 OVC011 03/02 A2989
RMK AO2 RAE01B31E44 SLP131 P0000 T00330022 $





000
SAUS46 KSEW 231254
MTRSMP
SPECI KSMP 231249Z AUTO 28007KT 250V320 2SM BR BKN003 OVC011 03/02
A2989 RMK AO2 VIS 3/4V5 RAE01B31E44 P0000 T00330022 $





000
SAUS46 KSEW 231249
MTRSMP
SPECI KSMP 231245Z AUTO 28007KT 230V310 1SM BR BKN003 OVC010 03/02
A2989 RMK AO2 RAE01B31E44 P0000 T00330022 $





000
SAUS46 KSEW 231242
MTRSMP
SPECI KSMP 231238Z AUTO 28008KT 210V320 3/4SM -RA BR BKN003 OVC010
03/02 A2989 RMK AO2 RAE01B31 P0000 T00330022 $





000
SAUS46 KSEW 231213
MTRSMP
SPECI KSMP 231209Z AUTO 29008KT 230V310 1/4SM FG VV002 03/02 A2989
RMK AO2 RAE01 P0000 T00330022 $





000
SAUS46 KSEW 231200
MTRSMP
METAR KSMP 231156Z AUTO 28008KT 250V320 1/2SM -RA FG BKN003 OVC009
03/02 A2989 RMK AO2 SLP129 P0005 60013 70041 T00330022 10039 20033
51002 $





000
SAUS46 KSEW 231101
MTRSMP
METAR KSMP 231056Z AUTO 28007KT 160V320 1/2SM -RA FG VV003 03/02
A2988 RMK AO2 RAE13B31 SLP127 P0004 T00330022 $





000
SAUS46 KSEW 230900
MTRSMP
METAR KSMP 230856Z AUTO 28009G18KT 220V310 1/2SM -RA FG VV002 03/02
A2988 RMK AO2 RAB18 SLP127 P0001 60002 T00330022 58005 $





000
SAUS46 KSEW 230823
MTRSMP
SPECI KSMP 230818Z AUTO VRB06KT 1/2SM -RA FG OVC002 03/02 A2989 RMK
AO2 RAB18 P0000 T00330022 $





000
SAUS46 KSEW 230813
MTRSMP
SPECI KSMP 230809Z AUTO 26008KT 230V300 1 1/4SM BR BKN004 OVC008
03/02 A2989 RMK AO2 VIS 3/4V4 T00330022 $





000
SAUS46 KSEW 230800
MTRSMP
METAR KSMP 230756Z AUTO 28007KT 250V310 10SM BKN006 OVC011 03/02
A2989 RMK AO2 CIG 002V009 SLP131 T00330022 400670028 $





000
SAUS46 KSEW 230731
MTRSMP
SPECI KSMP 230727Z AUTO 27009G20KT 3SM BR BKN004 OVC010 03/02 A2989
RMK AO2 T00330022 $





000
SAUS46 KSEW 230728
MTRSMP
SPECI KSMP 230724Z AUTO 28009G20KT 230V310 1 3/4SM BR BKN002 BKN006
OVC010 03/02 A2989 RMK AO2 T00330022 $





000
SAUS46 KSEW 230712
MTRSMP
SPECI KSMP 230708Z AUTO VRB05KT 1/2SM FG VV002 03/02 A2989 RMK AO2
T00330022 $





000
SAUS46 KSEW 230700
MTRSMP
METAR KSMP 230656Z AUTO 27008KT 220V310 1/4SM FG VV002 04/02 A2989
RMK AO2 RAE0558 SLP131 P0001 T00390022 $





000
SAUS46 KSEW 230617
MTRSMP
SPECI KSMP 230613Z AUTO VRB06KT 1/4SM FG VV002 04/03 A2989 RMK AO2
RAE0558 P0000 T00390028 $





000
SAUS46 KSEW 230600
MTRSMP
METAR KSMP 230556Z AUTO VRB06KT 1/2SM -RA FG BKN003 BKN007 OVC011
04/03 A2990 RMK AO2 RAE32B37 SLP135 P0002 60009 T00390028 10056
20039 50003 $





000
SAUS46 KSEW 230555
MTRSMP
SPECI KSMP 230551Z AUTO 28007KT 230V310 1SM -RA BR BKN003 BKN007
OVC011 04/03 A2990 RMK AO2 RAE32B37 P0002 $





000
SAUS46 KSEW 230552
MTRSMP
SPECI KSMP 230548Z AUTO VRB05KT 2 1/2SM -RA BR BKN003 BKN007 OVC011
04/03 A2990 RMK AO2 VIS 3/4V5 RAE32B37 P0002 T00390028 $





000
SAUS46 KSEW 230544
MTRSMP
SPECI KSMP 230540Z AUTO 29008KT 3SM -RA BR BKN005 OVC011 04/03 A2990
RMK AO2 RAE32B37 P0001 T00390028 $





000
SAUS46 KSEW 230512
MTRSMP
SPECI KSMP 230508Z AUTO 3/4SM -RA BR BKN004 OVC009 04/03 A2990 RMK
AO2 P0000 T00440028 $





000
SAUS46 KSEW 230510
MTRSMP
SPECI KSMP 230506Z AUTO VRB04KT 1SM -RA BR BKN005 BKN009 OVC016
04/03 A2990 RMK AO2 P0000 T00440028 $





000
SAUS46 KSEW 230500
MTRSMP
METAR KSMP 230456Z AUTO VRB05KT 1 3/4SM -RA BR BKN005 OVC009 04/03
A2990 RMK AO2 VIS 1/2V4 RAB01E11B29 SLP134 P0002 T00440028 $





000
SAUS46 KSEW 230458
MTRSMP
SPECI KSMP 230454Z AUTO VRB05KT 1 3/4SM -RA BR BKN005 OVC011 04/03
A2990 RMK AO2 VIS 1/2V5 RAB01E11B29 P0001 $





000
SAUS46 KSEW 230406
MTRSMP
SPECI KSMP 230401Z AUTO VRB06KT 2 1/2SM -RA BR BKN003 OVC008 04/03
A2989 RMK AO2 VIS 1/2V5 RAB01 P0000 T00440033 $





000
SAUS46 KSEW 230314
MTRSMP
SPECI KSMP 230310Z AUTO VRB04KT 1/4SM -RA FG BKN004 OVC012 04/03
A2989 RMK AO2 RAB06 P0000 T00440033 $





000
SAUS46 KSEW 230300
MTRSMP
METAR KSMP 230256Z AUTO VRB05KT 1/4SM FG OVC005 04/03 A2989 RMK AO2
RAE07B21E55 SLP132 P0002 60004 T00440033 55001 $





000
SAUS46 KSEW 230254
MTRSMP
SPECI KSMP 230250Z AUTO VRB05G16KT 3/4SM -RA BR BKN004 OVC007 04/03
A2989 RMK AO2 VIS 1/4V3 RAE07B21 P0002 $





000
SAUS46 KSEW 230240
MTRSMP
SPECI KSMP 230236Z AUTO VRB06KT 1 3/4SM -RA BR BKN007 OVC013 04/03
A2989 RMK AO2 VIS 1/2V5 RAE07B21 P0001 T00440028 $





000
SAUS46 KSEW 230231
MTRSMP
SPECI KSMP 230227Z AUTO 27007KT 230V330 6SM -RA BR BKN009 BKN017
OVC032 04/03 A2989 RMK AO2 RAE07B21 CIG 006V013 P0001 T00440028 $





000
SAUS46 KSEW 230222
MTRSMP
SPECI KSMP 230218Z AUTO 28008G20KT 230V050 8SM FEW009 BKN013 OVC033
05/03 A2989 RMK AO2 RAE07 P0000 T00500028 $





000
SAUS46 KSEW 230104
MTRSMP
SPECI KSMP 230100Z AUTO VRB05KT 10SM BKN007 BKN014 OVC020 05/03
A2989 RMK AO2 CIG 006V011 T00500028 $





000
SAUS46 KSEW 230100
MTRSMP
METAR KSMP 230056Z AUTO VRB06KT 10SM BKN010 OVC017 05/03 A2989 RMK
AO2 RAB17E41 CIG 006V012 SLP132 P0001 T00500028 $





000
SAUS46 KSEW 230039
MTRSMP
SPECI KSMP 230035Z AUTO VRB04KT 7SM -RA BKN008 BKN012 OVC016 05/03
A2989 RMK AO2 RAB17 P0001 T00500033 $





000
SAUS46 KSEW 230023
MTRSMP
SPECI KSMP 230019Z AUTO 26008G15KT 220V290 6SM -RA BR BKN010 OVC016
05/03 A2989 RMK AO2 RAB17 CIG 006V012 P0000 T00500028 $





000
SAUS46 KSEW 230013
MTRSMP
SPECI KSMP 230009Z AUTO 10SM BKN008 OVC022 06/03 A2989 RMK AO2 CIG
006V011 T00560033 $





000
SAUS46 KSEW 230000
MTRSMP
METAR KSMP 222356Z AUTO VRB06KT 10SM BKN010 OVC014 06/03 A2989 RMK
AO2 RAB14E44 SLP131 P0004 60011 T00560033 10067 20039 58000 $





000
SAUS46 KSEW 222345
MTRSMP
SPECI KSMP 222341Z AUTO VRB04KT 9SM -RA SCT008 BKN013 OVC019 06/03
A2989 RMK AO2 RAB14 P0004 T00560033 $





000
SAUS46 KSEW 222334
MTRSMP
SPECI KSMP 222330Z AUTO VRB05G17KT 2SM RA BR FEW005 BKN015 OVC023
05/03 A2989 RMK AO2 VIS 1 1/2V3 RAB14 P0003 T00500033 $





000
SAUS46 KSEW 222327
MTRSMP
SPECI KSMP 222323Z AUTO 27007KT 220V320 2 1/2SM -RA BR FEW006 BKN013
OVC026 06/03 A2989 RMK AO2 VIS 1 1/2V5 RAB14 P0001 T00560033 $





000
SAUS46 KSEW 222300
MTRSMP
METAR KSMP 222256Z AUTO VRB06KT 10SM SCT011 BKN016 OVC038 07/03
A2989 RMK AO2 SLP130 T00670033 $





000
SAUS46 KSEW 222041
MTRSMP
SPECI KSMP 222037Z AUTO VRB06KT 4SM -RA BR SCT010 BKN014 OVC035
05/03 A2989 RMK AO2 RAE00B30 P0000 T00500028 $





000
SAUS46 KSEW 221900
MTRSMP
METAR KSMP 221856Z AUTO 28008G18KT 190V010 9SM -RA SCT007 BKN013
OVC018 05/03 A2989 RMK AO2 RAE13B29 SLP131 P0001 T00500028 $





000
SAUS46 KSEW 221858
MTRSMP
SPECI KSMP 221854Z AUTO 28009G20KT 210V330 7SM -RA SCT007 BKN011
OVC018 05/03 A2989 RMK AO2 RAE13B29 P0001 $





000
SAUS46 KSEW 221800
MTRSMP
METAR KSMP 221756Z AUTO 28008KT 220V310 4SM -RA BR BKN007 BKN012
OVC021 04/03 A2990 RMK AO2 RAB50 SLP135 P0000 60008 T00390028 10039
20028 53004 $





000
SAUS46 KSEW 221623
MTRSMP
SPECI KSMP 221619Z AUTO 28010G25KT 230V310 10SM SCT004 BKN010 OVC015
03/02 A2988 RMK AO2 RAE02 P0000 T00330022 $





000
SAUS46 KSEW 221608
MTRSMP
SPECI KSMP 221604Z AUTO 27007G20KT 210V330 1 1/2SM BR BKN002 BKN006
OVC010 03/02 A2989 RMK AO2 VIS 1/2V4 RAE02 P0000 T00330022 $





000
SAUS46 KSEW 221600
MTRSMP
METAR KSMP 221556Z AUTO 29010G17KT 210V320 1/2SM -RA FG BKN002
BKN007 OVC012 03/02 A2988 RMK AO2 RAB07E20B28 SLP131 P0002 T00330022
$





000
SAUS46 KSEW 221526
MTRSMP
SPECI KSMP 221522Z AUTO 27007G18KT 180V340 3/4SM BR OVC002 03/02
A2988 RMK AO2 RAB07E20 P0001 T00330022 $





000
SAUS46 KSEW 221500
MTRSMP
METAR KSMP 221456Z AUTO 28010G20KT 250V310 1/4SM FG VV002 03/02
A2988 RMK AO2 RAE08B26E52 SLP128 P0002 60006 T00330022 51006 $





000
SAUS46 KSEW 221400
MTRSMP
METAR KSMP 221356Z AUTO VRB05KT 1/4SM -RA FG VV002 03/02 A2987 RMK
AO2 RAB42 SLP127 P0001 T00330022 $





000
SAUS46 KSEW 221300
MTRSMP
METAR KSMP 221256Z AUTO 27007KT 200V020 1/4SM FG VV002 03/02 A2986
RMK AO2 RAE35UPB35E48 SLP124 P0003 T00280017 $





000
SAUS46 KSEW 221236
MTRSMP
SPECI KSMP 221232Z AUTO VRB05KT 1/4SM -RA FG VV002 03/02 A2986 RMK
AO2 P0002 T00330022 $





000
SAUS46 KSEW 221220
MTRSMP
SPECI KSMP 221216Z AUTO 27008G15KT 1/2SM -RA FG VV002 03/02 A2986
RMK AO2 P0001 T00330022 $





000
SAUS46 KSEW 221200
MTRSMP
METAR KSMP 221156Z AUTO VRB06G15KT 1/4SM -RA FG VV002 03/02 A2986
RMK AO2 SLP119 P0005 60023 70104 T00330022 10039 20033 53002 $





000
SAUS46 KSEW 221100
MTRSMP
METAR KSMP 221056Z AUTO 27009G20KT 230V310 3/4SM -RA BR VV002 03/02
A2985 RMK AO2 SLP120 P0002 T00330022 $





000
SAUS46 KSEW 221000
MTRSMP
METAR KSMP 220956Z AUTO VRB06KT 1/4SM -RA FG VV002 03/02 A2985 RMK
AO2 SLP117 P0003 T00330022 $





000
SAUS46 KSEW 220839
MTRSMP
SPECI KSMP 220835Z AUTO 26008G17KT 220V310 1/2SM -RA FG VV002 03/02
A2985 RMK AO2 P0002 T00330022 $





    US Dept of Commerce
    National Oceanic and Atmospheric Administration
    National Weather Service
    1325 East West Highway
    Silver Spring, MD 20910
    Page Author: NWS Internet Services Team
Disclaimer
Information Quality
Credits
Glossary
Privacy Policy
Freedom of Information Act (FOIA)
About Us
Career Opportunities